Riverdale, Georgia
Current Conditions -  °F | °C
As of 9:52 PM on Tuesday 21 Oct 2014 (Local Time) from KATL Reporting Station
Clear Clear  
Wind Chill: 17°   Ceiling: Unl
Heat Index: 17°   Visibility: 10mi
Dew Point:   Wind: 8mph
Humidity: 58%   Direction: 340°NNW
Pressure: 30.01"   Gusts: NA
Location:  33.57°N, 84.41°W
Report Text: KATL 220152Z 34007KT 10SM CLR 17/08 A3001 RMK AO2 SLP159 T01670083
Loading
Personal Weather Stations






























Interactive Weather Map
Tropical Storm Tracking
New forecast layout! Learn more

10-Day Weather Forecast

Advertisements
Track Severe Weather on mobile